Time;durP1;ratioP1;P1;durP2;ratioP2;P2;SDS_P1;SDS_P2;PMS_P1;PMS_P2;Temp;Humidity;BMP_temperature;BMP_pressure;BME280_temperature;BME280_humidity;BME280_pressure;Samples;Min_cycle;Max_cycle;Signal;HPM_P1;HPM_P2
2022/09/29 00:00:42;;;;;;;5.05;3.92;;;11.40;99.90;;;;;;5000091;28;20057;-70
2022/09/29 00:03:08;;;;;;;7.20;4.13;;;11.40;99.90;;;;;;5011592;28;20033;-70
2022/09/29 00:05:35;;;;;;;5.60;4.05;;;11.40;99.90;;;;;;5004684;28;20038;-70
2022/09/29 00:08:00;;;;;;;5.30;4.07;;;11.30;99.90;;;;;;5012236;28;20365;-70
2022/09/29 00:10:26;;;;;;;5.53;3.75;;;11.30;99.90;;;;;;5006628;28;20030;-70
2022/09/29 00:12:51;;;;;;;5.75;4.22;;;11.20;99.90;;;;;;5011878;28;20022;-70
2022/09/29 00:15:18;;;;;;;6.45;4.43;;;11.20;99.90;;;;;;5010716;28;20083;-70
2022/09/29 00:17:44;;;;;;;6.15;4.68;;;11.20;99.90;;;;;;5012173;28;20030;-70
2022/09/29 00:20:09;;;;;;;5.72;4.53;;;11.10;99.90;;;;;;5002612;28;20014;-70
2022/09/29 00:22:35;;;;;;;5.85;4.20;;;11.10;99.90;;;;;;5004045;28;20038;-70
2022/09/29 00:25:00;;;;;;;6.90;4.50;;;11.10;99.90;;;;;;5003825;28;20645;-69
2022/09/29 00:27:26;;;;;;;8.10;4.53;;;11.10;99.90;;;;;;4992667;28;20037;-69
2022/09/29 00:29:51;;;;;;;5.93;4.38;;;11.00;99.90;;;;;;5003628;28;20014;-69
2022/09/29 00:32:17;;;;;;;6.07;4.40;;;11.00;99.90;;;;;;4992489;28;20041;-70
2022/09/29 00:34:43;;;;;;;6.88;4.68;;;11.00;99.90;;;;;;5002747;28;20025;-70
2022/09/29 00:37:09;;;;;;;5.82;4.68;;;10.90;99.90;;;;;;4993722;28;20097;-70
2022/09/29 00:39:34;;;;;;;6.53;4.47;;;10.90;99.90;;;;;;5008567;28;20042;-69
2022/09/29 00:42:00;;;;;;;7.13;5.07;;;10.90;99.90;;;;;;4974927;28;20018;-69
2022/09/29 00:44:58;;;;;;;5.93;4.65;;;10.80;99.90;;;;;;5002904;28;20084;-70
2022/09/29 00:47:24;;;;;;;6.80;5.45;;;10.80;99.90;;;;;;4993044;28;20083;-69
2022/09/29 00:50:02;;;;;;;7.70;4.95;;;10.70;99.90;;;;;;5007283;28;20030;-69
2022/09/29 00:52:36;;;;;;;7.35;5.20;;;10.70;99.90;;;;;;4996167;28;20042;-69
2022/09/29 00:55:05;;;;;;;7.30;5.22;;;10.70;99.90;;;;;;5006829;28;20477;-69
2022/09/29 00:57:37;;;;;;;6.68;4.38;;;10.60;99.90;;;;;;4996366;28;20038;-69
2022/09/29 01:00:08;;;;;;;7.90;5.93;;;10.60;99.90;;;;;;4996279;28;20037;-69
2022/09/29 01:02:37;;;;;;;7.22;5.53;;;10.50;99.90;;;;;;5002779;28;20041;-69
2022/09/29 01:05:07;;;;;;;8.25;5.15;;;10.50;99.90;;;;;;5008542;28;20493;-69
2022/09/29 01:07:33;;;;;;;6.78;4.93;;;10.50;99.90;;;;;;4996038;28;20145;-70
2022/09/29 01:09:59;;;;;;;6.45;4.90;;;10.50;99.90;;;;;;5007592;28;20101;-69
2022/09/29 01:12:25;;;;;;;8.32;5.63;;;10.40;99.90;;;;;;4990262;28;20392;-69
2022/09/29 01:14:54;;;;;;;7.32;5.20;;;10.40;99.90;;;;;;5014563;28;20030;-69
2022/09/29 01:17:21;;;;;;;5.85;4.57;;;10.40;99.90;;;;;;5007042;28;20037;-70
2022/09/29 01:19:50;;;;;;;7.45;5.20;;;10.40;99.90;;;;;;4994392;28;20061;-69
2022/09/29 01:22:55;;;;;;;7.28;5.07;;;10.40;99.90;;;;;;5006264;28;20026;-69
2022/09/29 01:25:39;;;;;;;9.45;5.20;;;10.30;99.90;;;;;;4981724;28;20046;-69
2022/09/29 01:28:26;;;;;;;7.03;5.18;;;10.30;99.90;;;;;;5012018;28;20040;-70
2022/09/29 01:31:18;;;;;;;7.22;5.00;;;10.20;99.90;;;;;;4994177;28;20044;-69
2022/09/29 01:33:56;;;;;;;7.85;5.38;;;10.20;99.90;;;;;;5014886;28;20030;-69
2022/09/29 01:36:43;;;;;;;7.32;5.30;;;10.20;99.90;;;;;;5006097;28;20058;-69
2022/09/29 01:39:15;;;;;;;7.15;5.38;;;10.20;99.90;;;;;;4996423;28;20122;-69
2022/09/29 01:42:03;;;;;;;7.28;5.45;;;10.10;99.90;;;;;;4996085;28;20033;-69
2022/09/29 01:44:47;;;;;;;7.00;5.40;;;10.20;99.90;;;;;;5014741;28;20029;-69
2022/09/29 01:47:18;;;;;;;9.10;5.57;;;10.20;99.90;;;;;;5007660;28;20543;-69
2022/09/29 01:49:49;;;;;;;6.68;5.13;;;10.20;99.90;;;;;;5012806;28;20029;-69
2022/09/29 01:52:22;;;;;;;8.77;6.43;;;10.20;99.90;;;;;;4991472;28;20112;-70
2022/09/29 01:54:56;;;;;;;8.80;5.70;;;10.20;99.90;;;;;;5012138;28;20060;-70
2022/09/29 01:57:41;;;;;;;8.55;5.63;;;10.20;99.90;;;;;;5013693;28;20044;-69
2022/09/29 02:00:11;;;;;;;5.75;4.53;;;10.20;99.90;;;;;;5003178;28;20043;-70
2022/09/29 02:02:43;;;;;;;7.90;5.88;;;10.20;99.90;;;;;;5007841;28;20042;-70
2022/09/29 02:05:16;;;;;;;8.85;6.57;;;10.20;99.90;;;;;;5014340;28;20037;-70
2022/09/29 02:07:45;;;;;;;7.93;5.35;;;10.20;99.90;;;;;;4994946;28;20042;-69
2022/09/29 02:10:36;;;;;;;9.05;5.93;;;10.20;99.90;;;;;;5013309;28;20022;-70
2022/09/29 02:13:05;;;;;;;7.70;5.00;;;10.30;99.90;;;;;;4994977;28;20030;-70
2022/09/29 02:15:37;;;;;;;8.75;6.20;;;10.30;99.90;;;;;;5011868;28;20080;-70
2022/09/29 02:18:12;;;;;;;8.77;6.03;;;10.30;99.90;;;;;;5012757;28;20113;-70
2022/09/29 02:20:38;;;;;;;7.68;6.18;;;10.30;99.90;;;;;;5011672;28;20021;-69
2022/09/29 02:23:03;;;;;;;9.02;5.90;;;10.30;99.90;;;;;;4996655;28;21180;-70
2022/09/29 02:25:33;;;;;;;10.02;6.65;;;10.30;99.90;;;;;;5011939;28;20428;-70
2022/09/29 02:28:00;;;;;;;7.22;5.65;;;10.40;99.90;;;;;;4995848;28;20057;-70
2022/09/29 02:30:25;;;;;;;8.00;5.80;;;10.40;99.90;;;;;;5013464;28;20402;-69
2022/09/29 02:32:51;;;;;;;7.93;5.85;;;10.40;99.90;;;;;;5012345;28;20032;-69
2022/09/29 02:35:17;;;;;;;8.00;5.43;;;10.40;99.90;;;;;;4994269;28;20031;-69
2022/09/29 02:38:10;;;;;;;6.80;5.45;;;10.40;99.90;;;;;;5011389;28;20024;-69
2022/09/29 02:41:08;;;;;;;7.82;6.18;;;10.50;99.90;;;;;;5013082;28;20036;-69
2022/09/29 02:43:38;;;;;;;8.43;6.05;;;10.50;99.90;;;;;;5002141;28;20117;-69
2022/09/29 02:46:37;;;;;;;8.00;5.70;;;10.50;99.90;;;;;;4993917;28;20054;-70
2022/09/29 02:49:20;;;;;;;7.65;5.53;;;10.50;99.90;;;;;;5009975;28;20048;-70
2022/09/29 02:52:01;;;;;;;8.55;6.13;;;10.60;99.90;;;;;;4995694;28;20126;-69
2022/09/29 02:54:38;;;;;;;8.52;6.22;;;10.60;99.90;;;;;;5012452;28;20050;-69
2022/09/29 02:57:33;;;;;;;10.88;5.68;;;10.60;99.90;;;;;;4994747;28;20021;-69
2022/09/29 03:00:07;;;;;;;8.20;6.03;;;10.60;99.90;;;;;;5013489;28;20026;-68
2022/09/29 03:02:33;;;;;;;8.73;6.87;;;10.70;99.90;;;;;;4996803;28;20034;-69
2022/09/29 03:04:58;;;;;;;12.20;7.70;;;10.80;99.90;;;;;;4993520;28;20489;-70
2022/09/29 03:07:24;;;;;;;9.95;7.13;;;10.80;99.90;;;;;;4997240;28;20108;-68
2022/09/29 03:09:50;;;;;;;12.43;7.40;;;10.80;99.90;;;;;;4993735;28;20022;-69
2022/09/29 03:12:17;;;;;;;8.88;6.28;;;10.80;99.90;;;;;;5004439;28;20469;-69
2022/09/29 03:14:43;;;;;;;10.30;6.53;;;10.80;99.90;;;;;;4975942;28;20026;-69
2022/09/29 03:17:09;;;;;;;10.70;7.43;;;10.80;99.90;;;;;;4997490;28;20035;-69
2022/09/29 03:19:35;;;;;;;9.13;6.70;;;10.80;99.90;;;;;;4993078;28;20069;-70
2022/09/29 03:22:02;;;;;;;10.27;7.35;;;10.90;99.90;;;;;;4998176;28;20390;-70
2022/09/29 03:24:30;;;;;;;10.05;6.65;;;10.90;99.90;;;;;;4993415;28;20031;-70
2022/09/29 03:26:56;;;;;;;10.20;7.85;;;11.00;99.90;;;;;;5005721;28;20045;-70
2022/09/29 03:29:21;;;;;;;8.88;7.18;;;11.00;99.90;;;;;;5005001;28;20026;-69
2022/09/29 03:31:47;;;;;;;10.25;7.10;;;11.00;99.90;;;;;;4998463;28;20117;-70
2022/09/29 03:34:12;;;;;;;9.43;7.35;;;11.00;99.90;;;;;;5004276;28;20118;-70
2022/09/29 03:36:40;;;;;;;9.50;7.40;;;11.00;99.90;;;;;;5006144;28;20485;-69
2022/09/29 03:39:06;;;;;;;9.45;7.60;;;11.00;99.90;;;;;;4993724;28;20034;-69
2022/09/29 03:41:31;;;;;;;8.43;6.55;;;11.00;99.90;;;;;;4998805;28;20022;-69
2022/09/29 03:43:57;;;;;;;10.48;7.95;;;11.00;99.90;;;;;;4993009;28;20022;-69
2022/09/29 03:46:23;;;;;;;10.43;8.27;;;11.10;99.90;;;;;;4998773;28;20129;-69
2022/09/29 03:48:49;;;;;;;9.80;7.00;;;11.00;99.90;;;;;;4992477;28;20587;-69
2022/09/29 03:51:14;;;;;;;10.35;7.60;;;11.00;99.90;;;;;;5001136;28;20036;-69
2022/09/29 03:53:40;;;;;;;10.20;7.50;;;11.00;99.90;;;;;;5006717;28;20105;-69
2022/09/29 03:56:06;;;;;;;10.52;7.90;;;11.00;99.90;;;;;;5008690;28;20403;-70
2022/09/29 03:58:32;;;;;;;11.38;7.85;;;11.00;99.90;;;;;;4979727;28;20029;-69
2022/09/29 04:00:58;;;;;;;10.55;7.15;;;11.00;99.90;;;;;;5010880;28;20018;-69
2022/09/29 04:03:23;;;;;;;10.25;6.93;;;11.00;99.90;;;;;;5006588;28;20408;-69
2022/09/29 04:05:49;;;;;;;11.18;7.35;;;11.00;99.90;;;;;;5010255;28;20374;-69
2022/09/29 04:08:15;;;;;;;10.48;7.07;;;11.00;99.90;;;;;;4993256;28;20095;-69
2022/09/29 04:10:42;;;;;;;11.52;8.50;;;11.00;99.90;;;;;;5007030;28;20377;-70
2022/09/29 04:13:07;;;;;;;11.23;7.40;;;11.00;99.90;;;;;;4993648;28;20036;-70
2022/09/29 04:15:33;;;;;;;10.90;7.78;;;11.00;99.90;;;;;;5011865;28;20026;-70
2022/09/29 04:18:00;;;;;;;10.85;8.30;;;11.00;99.90;;;;;;5010004;28;20129;-70
2022/09/29 04:20:26;;;;;;;11.65;8.45;;;11.00;99.90;;;;;;4994405;28;20350;-70
2022/09/29 04:22:51;;;;;;;10.95;8.27;;;11.00;99.90;;;;;;5010848;28;20385;-70
2022/09/29 04:25:17;;;;;;;10.85;8.02;;;11.10;99.90;;;;;;5011136;28;20026;-70
2022/09/29 04:27:43;;;;;;;11.65;7.93;;;11.00;99.90;;;;;;5004769;28;20061;-70
2022/09/29 04:30:09;;;;;;;10.55;7.80;;;11.10;99.90;;;;;;4993722;28;20534;-70
2022/09/29 04:32:35;;;;;;;11.88;7.80;;;11.10;99.90;;;;;;5005078;28;20045;-70
2022/09/29 04:35:01;;;;;;;10.50;8.07;;;11.10;99.90;;;;;;5011957;28;20094;-70
2022/09/29 04:37:27;;;;;;;11.45;8.40;;;11.10;99.90;;;;;;5005373;28;20026;-70
2022/09/29 04:39:53;;;;;;;9.80;7.15;;;11.10;99.90;;;;;;5012211;28;20018;-70
2022/09/29 04:42:19;;;;;;;11.18;7.90;;;11.10;99.90;;;;;;5002971;28;20073;-69
2022/09/29 04:44:44;;;;;;;10.85;8.18;;;11.20;99.90;;;;;;5011653;28;20025;-69
2022/09/29 04:47:11;;;;;;;10.40;7.30;;;11.20;99.90;;;;;;5005596;28;20057;-69
2022/09/29 04:49:37;;;;;;;11.25;8.52;;;11.20;99.90;;;;;;4998450;28;20469;-70
2022/09/29 04:52:03;;;;;;;12.40;8.25;;;11.20;99.90;;;;;;4997172;28;20030;-70
2022/09/29 04:54:32;;;;;;;10.77;8.05;;;11.20;99.90;;;;;;4991906;28;20053;-70
2022/09/29 04:56:58;;;;;;;11.38;8.10;;;11.20;99.90;;;;;;4997661;28;20076;-70
2022/09/29 04:59:24;;;;;;;12.95;8.75;;;11.20;99.90;;;;;;4998820;28;20037;-70
2022/09/29 05:01:50;;;;;;;11.45;8.50;;;11.20;99.90;;;;;;5002464;28;20428;-70
2022/09/29 05:04:15;;;;;;;12.65;8.77;;;11.20;99.90;;;;;;5011026;28;20079;-70
2022/09/29 05:06:41;;;;;;;11.13;7.97;;;11.10;99.90;;;;;;4993249;28;20385;-70
2022/09/29 05:09:07;;;;;;;11.18;8.00;;;11.20;99.90;;;;;;4996979;28;20052;-70
2022/09/29 05:11:33;;;;;;;12.43;8.40;;;11.20;99.90;;;;;;5008585;28;20026;-70
2022/09/29 05:13:59;;;;;;;10.73;8.05;;;11.20;99.90;;;;;;4977826;28;20434;-70
2022/09/29 05:16:43;;;;;;;11.40;7.85;;;11.20;99.90;;;;;;5010561;28;20436;-70
2022/09/29 05:19:30;;;;;;;12.13;7.43;;;11.10;99.90;;;;;;5002986;28;20564;-70
2022/09/29 05:22:23;;;;;;;9.85;7.75;;;11.10;99.90;;;;;;4994179;28;20057;-70
2022/09/29 05:25:09;;;;;;;11.13;7.60;;;11.10;99.90;;;;;;5007474;28;20033;-70
2022/09/29 05:27:56;;;;;;;12.45;7.68;;;11.20;99.90;;;;;;4995962;28;20438;-70
2022/09/29 05:30:42;;;;;;;11.30;7.88;;;11.30;99.90;;;;;;4975889;28;20060;-70
2022/09/29 05:33:15;;;;;;;12.40;8.75;;;11.20;99.90;;;;;;4993800;28;20069;-70
2022/09/29 05:35:41;;;;;;;13.32;9.15;;;11.20;99.90;;;;;;5005992;28;20053;-70
2022/09/29 05:38:07;;;;;;;10.85;8.07;;;11.20;99.90;;;;;;5007568;28;20065;-69
2022/09/29 05:40:32;;;;;;;11.43;8.15;;;11.20;99.90;;;;;;4995544;28;20366;-69
2022/09/29 05:42:59;;;;;;;11.75;8.43;;;11.30;99.90;;;;;;4989541;28;20080;-69
2022/09/29 05:45:25;;;;;;;12.43;9.38;;;11.20;99.90;;;;;;5013065;28;20179;-69
2022/09/29 05:47:53;;;;;;;12.38;8.82;;;11.30;99.90;;;;;;5013516;28;20033;-69
2022/09/29 05:50:19;;;;;;;10.05;7.88;;;11.30;99.90;;;;;;5014777;28;20026;-69
2022/09/29 05:52:48;;;;;;;12.02;8.68;;;11.30;99.90;;;;;;5013185;28;20033;-69
2022/09/29 05:55:14;;;;;;;13.25;8.85;;;11.30;99.90;;;;;;5013595;28;20417;-69
2022/09/29 05:57:39;;;;;;;12.98;9.10;;;11.30;99.90;;;;;;5001329;28;20038;-69
2022/09/29 06:00:06;;;;;;;11.27;8.27;;;11.30;99.90;;;;;;5010710;28;20033;-69
2022/09/29 06:02:32;;;;;;;13.15;8.85;;;11.40;99.90;;;;;;5013282;28;20030;-69
2022/09/29 06:04:59;;;;;;;11.38;8.50;;;11.40;99.90;;;;;;5014080;28;20033;-69
2022/09/29 06:07:25;;;;;;;12.75;9.48;;;11.40;99.90;;;;;;5013148;28;20120;-70
2022/09/29 06:09:50;;;;;;;12.73;8.38;;;11.50;99.90;;;;;;5014356;28;20109;-70
2022/09/29 06:12:16;;;;;;;11.35;8.18;;;11.50;99.90;;;;;;5013430;28;20591;-70
2022/09/29 06:14:44;;;;;;;14.98;9.15;;;11.50;99.90;;;;;;5013170;28;20037;-70
2022/09/29 06:17:09;;;;;;;12.32;9.02;;;11.50;99.90;;;;;;4996665;28;20104;-68
2022/09/29 06:19:35;;;;;;;13.73;10.10;;;11.50;99.90;;;;;;5000140;28;20104;-69
2022/09/29 06:22:00;;;;;;;14.00;9.68;;;11.60;99.90;;;;;;4997473;28;20389;-67
2022/09/29 06:24:26;;;;;;;12.27;9.20;;;11.60;99.90;;;;;;4994699;28;20496;-67
2022/09/29 06:26:52;;;;;;;12.45;9.18;;;11.60;99.90;;;;;;4998040;28;20042;-68
2022/09/29 06:29:17;;;;;;;14.70;9.90;;;11.60;99.90;;;;;;5004342;28;20052;-68
2022/09/29 06:31:43;;;;;;;15.27;10.18;;;11.70;99.90;;;;;;5011547;28;20033;-67
2022/09/29 06:34:09;;;;;;;15.07;9.43;;;11.70;99.90;;;;;;5004573;28;20072;-68
2022/09/29 06:39:26;;;;;;;16.67;10.75;;;11.70;99.90;;;;;;5010735;28;20034;-68
2022/09/29 06:41:55;;;;;;;14.57;9.52;;;11.70;99.90;;;;;;5003245;28;20114;-68
2022/09/29 06:44:23;;;;;;;14.55;9.77;;;11.70;99.90;;;;;;5011580;28;20473;-68
2022/09/29 06:46:50;;;;;;;14.65;10.60;;;11.70;99.90;;;;;;5009333;28;20038;-69
2022/09/29 06:49:16;;;;;;;14.95;9.80;;;11.80;99.90;;;;;;5008832;28;20435;-68
2022/09/29 06:51:42;;;;;;;16.95;10.00;;;11.80;99.90;;;;;;5006611;28;20034;-68
2022/09/29 06:54:09;;;;;;;14.88;10.10;;;11.80;99.90;;;;;;5012823;28;20025;-69
2022/09/29 06:56:34;;;;;;;14.75;10.70;;;11.80;99.90;;;;;;5011645;28;20433;-69
2022/09/29 06:59:00;;;;;;;13.60;9.75;;;11.90;99.90;;;;;;4995688;28;20019;-67
2022/09/29 07:01:26;;;;;;;16.33;11.00;;;11.90;99.90;;;;;;5009542;28;20037;-67
2022/09/29 07:03:51;;;;;;;15.43;10.43;;;11.90;99.90;;;;;;5013190;28;20068;-67
2022/09/29 07:06:17;;;;;;;14.48;11.07;;;11.90;99.90;;;;;;5010293;28;20048;-67
2022/09/29 07:08:43;;;;;;;14.95;10.40;;;12.00;99.90;;;;;;5011737;28;20470;-67
2022/09/29 07:11:09;;;;;;;14.52;10.48;;;12.00;99.90;;;;;;5005594;28;20053;-67
2022/09/29 07:13:36;;;;;;;14.15;10.30;;;12.00;99.90;;;;;;5012200;28;20481;-68
2022/09/29 07:16:10;;;;;;;16.73;11.40;;;12.00;99.90;;;;;;5012215;28;20385;-68
2022/09/29 07:18:38;;;;;;;15.00;10.10;;;12.00;99.90;;;;;;5006616;28;20448;-67
2022/09/29 07:21:05;;;;;;;25.90;12.13;;;12.00;99.90;;;;;;5006917;28;20091;-68
2022/09/29 07:23:32;;;;;;;14.70;10.95;;;12.00;99.90;;;;;;5007358;28;20022;-67
2022/09/29 07:25:58;;;;;;;18.02;12.35;;;12.00;99.90;;;;;;5012547;28;20108;-68
2022/09/29 07:28:24;;;;;;;22.67;11.82;;;12.10;99.90;;;;;;5007703;28;20038;-68
2022/09/29 07:31:04;;;;;;;17.20;12.20;;;12.10;99.90;;;;;;5003695;28;20034;-68
2022/09/29 07:33:30;;;;;;;18.38;11.27;;;12.10;99.90;;;;;;5004419;28;20060;-68
2022/09/29 07:35:58;;;;;;;16.98;12.23;;;12.10;99.90;;;;;;5012573;28;20038;-67
2022/09/29 07:38:23;;;;;;;16.98;12.55;;;12.20;99.90;;;;;;5007354;28;20169;-68
2022/09/29 07:40:49;;;;;;;18.50;13.13;;;12.10;99.90;;;;;;4994876;28;20113;-68
2022/09/29 07:43:15;;;;;;;19.40;13.27;;;12.20;99.90;;;;;;5005658;28;20023;-68
2022/09/29 07:45:51;;;;;;;19.95;14.00;;;12.20;99.90;;;;;;5008692;28;20373;-68
2022/09/29 07:48:17;;;;;;;17.60;11.77;;;12.20;99.90;;;;;;4991849;28;20038;-68
2022/09/29 07:50:44;;;;;;;20.25;12.52;;;12.20;99.90;;;;;;5011915;28;20034;-68
2022/09/29 07:53:11;;;;;;;17.17;12.77;;;12.30;99.90;;;;;;5010948;28;20021;-68
2022/09/29 07:55:37;;;;;;;17.30;12.75;;;12.30;99.90;;;;;;5010939;28;20093;-68
2022/09/29 07:58:04;;;;;;;18.15;12.18;;;12.30;99.90;;;;;;4999168;28;20065;-68
2022/09/29 08:00:31;;;;;;;16.80;11.88;;;12.30;99.90;;;;;;4998304;28;20034;-68
2022/09/29 08:03:06;;;;;;;17.25;12.48;;;12.40;99.90;;;;;;5011306;28;20108;-69
2022/09/29 08:05:33;;;;;;;17.58;12.80;;;12.40;99.90;;;;;;5011395;28;20156;-68
2022/09/29 08:08:00;;;;;;;15.98;11.82;;;12.50;99.90;;;;;;5010249;28;20026;-68
2022/09/29 08:10:28;;;;;;;18.17;11.30;;;12.50;99.90;;;;;;5009215;28;20511;-68
2022/09/29 08:12:55;;;;;;;14.80;11.20;;;12.50;99.90;;;;;;5010900;28;20041;-68
2022/09/29 08:15:22;;;;;;;17.60;11.45;;;12.70;99.90;;;;;;4990981;28;20089;-68
2022/09/29 08:17:51;;;;;;;21.13;12.35;;;12.70;99.90;;;;;;5010714;28;20040;-68
2022/09/29 08:20:17;;;;;;;17.45;12.27;;;12.80;99.90;;;;;;4996707;28;20030;-68
2022/09/29 08:22:43;;;;;;;17.42;12.93;;;12.90;99.90;;;;;;5010469;28;20104;-68
2022/09/29 08:25:09;;;;;;;17.13;12.18;;;12.90;99.90;;;;;;4996968;28;20026;-70
2022/09/29 08:27:35;;;;;;;15.02;11.40;;;13.00;99.90;;;;;;4977197;28;20103;-69
2022/09/29 08:30:01;;;;;;;20.88;12.68;;;13.10;99.90;;;;;;5010639;28;20032;-69
2022/09/29 08:32:27;;;;;;;15.65;11.82;;;13.20;99.90;;;;;;5010576;28;20388;-69
2022/09/29 08:34:53;;;;;;;19.58;13.43;;;13.20;99.90;;;;;;4995514;28;20030;-68
2022/09/29 08:37:19;;;;;;;20.42;13.45;;;13.30;99.90;;;;;;4985359;28;20025;-69
2022/09/29 08:39:45;;;;;;;19.00;12.48;;;13.40;99.90;;;;;;5010489;28;20121;-69
2022/09/29 08:42:21;;;;;;;19.33;11.52;;;13.40;99.80;;;;;;5010521;28;20452;-69
2022/09/29 08:44:54;;;;;;;15.25;11.55;;;13.50;99.70;;;;;;4992438;28;20081;-69
2022/09/29 08:47:28;;;;;;;16.35;11.85;;;13.60;99.60;;;;;;5004276;28;20042;-69
2022/09/29 08:50:04;;;;;;;18.27;13.80;;;13.70;99.40;;;;;;5011627;28;20149;-69
2022/09/29 08:52:37;;;;;;;20.83;14.55;;;13.80;99.40;;;;;;5010648;28;20034;-69
2022/09/29 08:55:15;;;;;;;18.93;11.70;;;13.90;99.50;;;;;;4989717;28;20073;-69
2022/09/29 08:57:42;;;;;;;16.48;12.93;;;14.00;99.40;;;;;;4989566;28;20031;-69
2022/09/29 09:00:13;;;;;;;18.92;13.40;;;14.10;99.20;;;;;;4980759;28;20038;-69
2022/09/29 09:03:04;;;;;;;21.13;14.38;;;14.10;99.10;;;;;;4983364;28;20038;-68
2022/09/29 09:05:49;;;;;;;17.08;11.77;;;14.20;98.90;;;;;;4971370;28;20031;-68
2022/09/29 09:08:27;;;;;;;19.23;12.60;;;14.30;98.80;;;;;;4978988;28;20557;-69
2022/09/29 09:11:27;;;;;;;17.80;11.93;;;14.30;98.80;;;;;;4975225;28;20031;-69
2022/09/29 09:14:13;;;;;;;15.38;9.90;;;14.40;98.80;;;;;;4976567;28;20030;-69
2022/09/29 09:16:51;;;;;;;12.32;9.32;;;14.50;98.60;;;;;;4981921;28;20054;-68
2022/09/29 09:19:56;;;;;;;12.75;9.98;;;14.60;98.40;;;;;;4993558;28;21238;-68
2022/09/29 09:22:31;;;;;;;16.58;11.65;;;14.70;98.40;;;;;;4994772;28;20108;-69
2022/09/29 09:25:34;;;;;;;14.73;10.32;;;14.80;98.40;;;;;;4988992;28;20038;-69
2022/09/29 09:28:21;;;;;;;13.63;9.75;;;14.90;98.30;;;;;;4992268;28;20070;-69
2022/09/29 09:31:13;;;;;;;12.00;9.23;;;15.00;98.10;;;;;;4976254;28;20401;-69
2022/09/29 09:34:00;;;;;;;15.07;10.93;;;15.10;98.00;;;;;;4982298;28;20045;-68
2022/09/29 09:36:38;;;;;;;14.73;10.57;;;15.10;97.80;;;;;;4984508;28;20137;-69
2022/09/29 09:39:16;;;;;;;13.23;9.85;;;15.30;97.70;;;;;;4979171;28;20090;-68
2022/09/29 09:41:46;;;;;;;13.43;10.93;;;15.30;97.60;;;;;;4990291;28;20033;-69
2022/09/29 09:44:32;;;;;;;14.40;10.07;;;15.40;97.60;;;;;;4985535;28;20109;-68
2022/09/29 09:47:03;;;;;;;11.02;8.93;;;15.40;97.50;;;;;;4982059;28;20038;-69
2022/09/29 09:49:34;;;;;;;11.88;9.07;;;15.40;97.30;;;;;;4984367;28;20493;-69
2022/09/29 09:52:19;;;;;;;12.68;8.93;;;15.50;97.20;;;;;;4989096;28;20058;-69
2022/09/29 09:54:50;;;;;;;11.85;9.27;;;15.50;97.10;;;;;;4988473;28;20472;-70
2022/09/29 09:57:18;;;;;;;12.00;9.15;;;15.60;96.80;;;;;;5004375;28;20061;-70
2022/09/29 09:59:52;;;;;;;11.15;8.75;;;15.60;96.70;;;;;;5002084;28;20030;-70
2022/09/29 10:02:20;;;;;;;10.98;8.50;;;15.50;96.60;;;;;;4993022;28;20030;-71
2022/09/29 10:04:54;;;;;;;11.93;8.95;;;15.40;96.50;;;;;;5010993;28;20374;-73
2022/09/29 10:07:23;;;;;;;11.43;8.55;;;15.40;96.50;;;;;;4975514;28;20041;-71
2022/09/29 10:09:50;;;;;;;9.25;7.15;;;15.40;96.50;;;;;;5004563;28;20389;-71
2022/09/29 10:12:24;;;;;;;10.63;7.95;;;15.30;96.60;;;;;;5009175;28;20035;-71
2022/09/29 10:14:58;;;;;;;10.13;7.72;;;15.30;96.60;;;;;;5013137;28;20460;-72
2022/09/29 10:17:29;;;;;;;9.32;7.68;;;15.40;96.50;;;;;;5014208;28;20488;-72
2022/09/29 10:20:00;;;;;;;9.27;7.80;;;15.40;96.60;;;;;;5014301;28;20064;-71
2022/09/29 10:22:28;;;;;;;9.35;7.60;;;15.40;96.40;;;;;;5013854;28;20029;-71
2022/09/29 10:25:17;;;;;;;9.65;7.78;;;15.50;96.30;;;;;;5014629;28;20073;-72
2022/09/29 10:27:49;;;;;;;9.55;7.90;;;15.50;96.30;;;;;;5014123;28;20034;-71
2022/09/29 10:30:23;;;;;;;8.43;6.90;;;15.60;96.30;;;;;;5014170;28;20465;-71
2022/09/29 10:32:56;;;;;;;9.85;7.50;;;15.60;96.20;;;;;;5013383;28;20037;-71
2022/09/29 10:35:37;;;;;;;9.23;7.93;;;15.70;96.30;;;;;;4996803;28;20492;-72
2022/09/29 10:38:19;;;;;;;10.23;7.93;;;15.80;96.10;;;;;;4995849;28;20120;-71
2022/09/29 10:40:59;;;;;;;10.40;7.78;;;15.90;96.00;;;;;;5014135;28;20587;-71
2022/09/29 10:43:33;;;;;;;8.88;7.50;;;16.00;95.80;;;;;;5014315;28;20065;-72
2022/09/29 10:45:59;;;;;;;9.27;7.43;;;16.00;95.60;;;;;;4994671;28;20068;-72
2022/09/29 10:48:26;;;;;;;9.93;7.55;;;16.10;95.70;;;;;;5008685;28;20113;-71
2022/09/29 10:50:53;;;;;;;9.13;7.47;;;16.10;95.50;;;;;;5000829;28;20034;-71
2022/09/29 10:53:33;;;;;;;10.80;7.93;;;16.10;95.40;;;;;;4997062;28;20033;-71
2022/09/29 10:56:04;;;;;;;8.68;6.85;;;16.10;95.40;;;;;;5012630;28;20085;-72
2022/09/29 10:58:39;;;;;;;9.35;6.53;;;16.10;95.20;;;;;;5016631;28;20476;-71
2022/09/29 11:01:16;;;;;;;7.03;5.80;;;16.10;95.20;;;;;;5024000;28;20049;-71
2022/09/29 11:04:05;;;;;;;9.65;6.65;;;16.20;95.10;;;;;;5009093;28;20030;-72
2022/09/29 11:06:37;;;;;;;7.75;6.05;;;16.20;94.80;;;;;;5011103;28;20049;-72
2022/09/29 11:09:15;;;;;;;7.63;6.05;;;16.20;94.90;;;;;;5012367;28;20104;-71
2022/09/29 11:11:46;;;;;;;9.35;5.63;;;16.30;95.10;;;;;;5013867;28;20034;-71
2022/09/29 11:14:30;;;;;;;6.28;5.50;;;16.40;94.80;;;;;;5012781;28;20045;-70
2022/09/29 11:17:01;;;;;;;7.80;5.68;;;16.50;94.70;;;;;;5009690;28;20030;-71
2022/09/29 11:19:29;;;;;;;8.30;6.55;;;16.50;94.60;;;;;;5006349;28;20117;-71
2022/09/29 11:22:17;;;;;;;7.45;5.45;;;16.60;94.50;;;;;;4995051;28;20033;-72
2022/09/29 11:24:42;;;;;;;8.25;6.13;;;16.60;94.30;;;;;;5009066;28;20028;-72
2022/09/29 11:27:22;;;;;;;7.97;5.88;;;16.60;94.20;;;;;;5011005;28;20129;-72
2022/09/29 11:30:10;;;;;;;7.80;6.13;;;16.70;94.20;;;;;;5012076;28;20029;-71
2022/09/29 11:33:18;;;;;;;6.57;5.00;;;16.70;93.90;;;;;;4997626;28;20143;-71
2022/09/29 11:35:53;;;;;;;7.80;5.00;;;16.70;93.80;;;;;;5012494;28;20037;-71
2022/09/29 11:38:25;;;;;;;6.57;5.03;;;16.70;93.70;;;;;;4995237;28;20116;-75
2022/09/29 11:41:38;;;;;;;6.70;5.07;;;16.60;93.50;;;;;;5013148;28;20117;-72
2022/09/29 11:44:44;;;;;;;6.22;5.45;;;16.60;93.60;;;;;;4958443;28;20026;-71
2022/09/29 11:47:25;;;;;;;7.38;5.10;;;16.50;93.60;;;;;;5012006;28;20404;-72
2022/09/29 11:50:10;;;;;;;5.88;4.60;;;16.50;93.80;;;;;;4998136;28;20022;-71
2022/09/29 11:52:49;;;;;;;10.50;5.70;;;16.50;93.90;;;;;;5008305;28;20362;-71
2022/09/29 11:55:28;;;;;;;7.45;5.93;;;16.50;93.80;;;;;;5012128;28;20045;-72
2022/09/29 11:58:05;;;;;;;7.18;5.30;;;16.40;94.20;;;;;;4993881;28;20551;-71
2022/09/29 12:00:41;;;;;;;7.88;5.60;;;16.40;93.70;;;;;;4995860;28;20497;-72
2022/09/29 12:03:18;;;;;;;5.10;4.47;;;16.40;93.80;;;;;;4998534;28;20550;-72
2022/09/29 12:06:13;;;;;;;6.55;5.15;;;16.40;93.70;;;;;;5010641;28;20027;-72
2022/09/29 12:08:52;;;;;;;6.18;4.93;;;16.30;93.50;;;;;;5011759;28;20061;-73
2022/09/29 12:11:43;;;;;;;6.82;4.70;;;16.30;93.50;;;;;;5011234;28;20048;-73
2022/09/29 12:14:26;;;;;;;6.10;5.35;;;16.20;93.60;;;;;;5003193;28;20029;-73
2022/09/29 12:17:07;;;;;;;5.35;4.63;;;16.10;93.50;;;;;;5012095;28;20034;-73
2022/09/29 12:19:38;;;;;;;7.40;4.72;;;16.10;93.50;;;;;;5012265;28;20022;-71
2022/09/29 12:22:08;;;;;;;5.90;4.60;;;16.00;93.40;;;;;;5012004;28;20104;-73
2022/09/29 12:24:41;;;;;;;7.32;4.53;;;16.00;93.40;;;;;;5001458;28;20058;-73
2022/09/29 12:27:17;;;;;;;6.57;4.28;;;16.00;93.30;;;;;;5011627;28;20041;-72
2022/09/29 12:29:49;;;;;;;7.53;4.25;;;16.00;93.40;;;;;;5010177;28;20025;-73
2022/09/29 12:32:22;;;;;;;5.68;3.90;;;16.00;93.40;;;;;;5011648;28;20026;-72
2022/09/29 12:34:52;;;;;;;7.30;4.35;;;16.00;93.30;;;;;;4991922;28;20642;-72
2022/09/29 12:37:42;;;;;;;6.22;4.15;;;16.00;93.50;;;;;;5010985;28;20030;-73
2022/09/29 12:40:21;;;;;;;5.20;3.92;;;16.00;93.60;;;;;;5001703;28;20041;-73
2022/09/29 12:43:00;;;;;;;6.32;4.22;;;16.10;93.40;;;;;;4999523;28;20030;-73
2022/09/29 12:45:59;;;;;;;5.82;4.68;;;16.10;93.40;;;;;;5003572;28;20108;-73
2022/09/29 12:48:59;;;;;;;6.85;4.47;;;16.20;93.30;;;;;;5014774;28;20041;-73
2022/09/29 12:51:32;;;;;;;5.57;4.65;;;16.20;93.10;;;;;;5005518;28;20030;-73
2022/09/29 12:54:07;;;;;;;5.75;3.90;;;16.20;92.80;;;;;;5013011;28;20092;-74
2022/09/29 12:56:36;;;;;;;;;;;16.30;92.90;;;;;;4979142;28;20029;-73
2022/09/29 12:59:22;;;;;;;6.13;4.07;;;16.30;93.10;;;;;;5008352;28;19909;-73
2022/09/29 13:01:53;;;;;;;5.63;4.00;;;16.20;93.10;;;;;;5006642;28;20022;-73
2022/09/29 13:04:49;;;;;;;4.95;3.63;;;16.20;93.00;;;;;;5007849;28;20033;-73
2022/09/29 13:07:42;;;;;;;5.32;3.83;;;16.20;93.00;;;;;;5001352;28;20074;-72
2022/09/29 13:10:37;;;;;;;4.82;3.60;;;16.30;93.20;;;;;;5006675;28;20113;-73